< Typhoon 197024 1970 Season Typhoon 197026 >
Typhoon 197025 (PATSY)
General InformationTrack Information on Google Maps || Disaster Info.ResourceGoogle EarthGE AnimationAtom FeedGeoJSON
Detalied Best Track (Time Zone = UTC)
Year Month Day Hour Lat. Long. Pressure (hPa) Wind (kt) Class Image Chart
1970 11 14 00 13.2 154.0 1006 0 2 -- Chart
1970 11 14 06 14.0 152.2 1006 0 9 -- Chart
1970 11 14 12 14.8 150.0 1006 0 9 -- Chart
1970 11 14 18 15.2 148.0 1000 0 9 -- Chart
1970 11 15 00 15.3 146.2 998 0 9 -- Chart
1970 11 15 06 15.2 144.8 995 0 9 -- Chart
1970 11 15 12 15.1 143.5 990 0 9 -- Chart
1970 11 15 18 15.1 142.4 990 0 9 -- Chart
1970 11 16 00 15.1 140.7 990 0 9 -- Chart
1970 11 16 06 14.9 139.2 985 0 9 -- Chart
1970 11 16 12 14.9 138.0 980 0 9 -- Chart
1970 11 16 18 14.7 136.7 975 0 9 -- Chart
1970 11 17 00 14.7 135.1 965 0 9 -- Chart
1970 11 17 06 14.7 133.5 955 0 9 -- Chart
1970 11 17 12 14.5 132.0 945 0 9 -- Chart
1970 11 17 18 14.5 130.3 935 0 9 -- Chart
1970 11 18 00 14.5 128.6 925 0 9 -- Chart
1970 11 18 06 14.3 127.3 920 0 9 -- Chart
1970 11 18 12 14.2 126.0 910 0 9 -- Chart
1970 11 18 18 14.2 124.0 910 0 9 -- Chart
1970 11 19 00 14.6 122.5 925 0 9 -- Chart
1970 11 19 06 14.5 120.0 950 0 9 -- Chart
1970 11 19 12 14.6 119.1 975 0 9 -- Chart
1970 11 19 18 15.0 117.5 985 0 9 -- Chart
1970 11 20 00 15.5 116.2 985 0 9 -- Chart
1970 11 20 06 15.6 115.4 985 0 9 -- Chart
1970 11 20 12 15.8 114.6 990 0 9 -- Chart
1970 11 20 18 15.9 113.1 990 0 9 -- Chart
1970 11 21 00 15.9 111.7 995 0 9 -- Chart
1970 11 21 06 16.1 110.3 998 0 9 -- Chart
1970 11 21 12 16.3 109.5 996 0 9 -- Chart
1970 11 21 18 16.8 108.2 998 0 9 -- Chart
1970 11 22 00 17.0 107.1 1000 0 9 -- Chart
1970 11 22 06 17.0 106.0 1006 0 2 -- Chart
Japan Meteorological Agency Best Track Data | Correction Date : 1989-06-01
< Typhoon 197024 1970 Season Typhoon 197026 >

Help